LGTG

Details ICAO LGTG
Name TANAGRA
Region Greece
Timezone Europe/Athens (UTC+3.0)
Plans Departing 7
Arriving 7
Stats Elevation 485 ft / 148 m (AMSL)
Location 38.339846° 23.564957°
Runways 1
Magnetic Variation 4.519° E
Sunrise 2018-05-23 03:10:09 UTC / 2018-05-23 06:10:09 Local
Sunset 2018-05-23 17:37:40 UTC / 2018-05-23 20:37:40 Local
Advertisement - Login to hide

Runways

ID Width Length Bearing (true) Bearing (mag) Surface Threshold Offset Overrun Length
10 148 ft / 45 m 9,791 ft / 2,984 m 104.86° 100.34° Asphalt 492 ft / 150 m 775 ft / 236 m
28 148 ft / 45 m 9,791 ft / 2,984 m 284.88° 280.36° Asphalt 0 ft / 0 m 670 ft / 204 m

Map

Weather


0- 5 10 15 20 25 30 35+ Temperature / ° C

Clouds and Precipitation
Forecast for 2018-05-23 06:00 UTC. Updated 42 minutes ago

Ground ~20,000 ft ~40,000 ft Winds

METAR

LGTG 230550Z 00000KT CAVOK 22/12 Q1019 RMK FEW180 BLU

TAF

Not found

Frequencies

Tower 122.10 MHz TWR
Approach 120.25 MHz APP
Tower 120.25 MHz TWR
Approach 122.10 MHz APP
Warning: Do not use this data for real-world aviation or navigation. No guarantee of current accuracy is given.